createdAt,value
2023-01-15T00:02:34.060Z,100678.66
2023-01-15T00:05:33.968Z,100683.48
2023-01-15T00:08:36.930Z,100680.99
2023-01-15T00:11:39.047Z,100678.16
2023-01-15T00:14:40.147Z,100667.86
2023-01-15T00:17:41.984Z,100664.11
2023-01-15T00:20:41.839Z,100667.98
2023-01-15T00:24:04.490Z,100673.95
2023-01-15T00:27:23.904Z,100670.77
2023-01-15T00:30:26.918Z,100671.59
2023-01-15T00:33:27.941Z,100668.77
2023-01-15T00:36:28.044Z,100669.09
2023-01-15T00:39:30.647Z,100662.93
2023-01-15T00:42:30.935Z,100666.13
2023-01-15T00:45:35.909Z,100661.39
2023-01-15T00:48:31.129Z,100661.73
2023-01-15T00:51:35.587Z,100657.77
2023-01-15T00:54:36.946Z,100651.34
2023-01-15T00:57:36.951Z,100653.95
2023-01-15T01:00:40.997Z,100654.36
2023-01-15T01:03:41.936Z,100647.98
2023-01-15T01:06:41.984Z,100646.98
2023-01-15T01:09:44.002Z,100647.76
2023-01-15T01:12:45.975Z,100642.25
2023-01-15T01:15:47.058Z,100634.76
2023-01-15T01:18:47.989Z,100633.11
2023-01-15T01:21:50.010Z,100636.46
2023-01-15T01:24:44.749Z,100636.83
2023-01-15T01:27:45.995Z,100634.71
2023-01-15T01:30:51.984Z,100628.92
2023-01-15T01:33:52.050Z,100637.04
2023-01-15T01:36:53.602Z,100636.16
2023-01-15T01:39:57.128Z,100633.15
2023-01-15T01:43:01.066Z,100633.93
2023-01-15T01:46:03.136Z,100631.41
2023-01-15T01:49:08.917Z,100634.80
2023-01-15T01:52:15.098Z,100634.11
2023-01-15T01:55:15.294Z,100632.45
2023-01-15T01:58:18.392Z,100630.63
2023-01-15T02:01:21.677Z,100632.35
2023-01-15T02:04:25.650Z,100642.55
2023-01-15T02:07:26.056Z,100647.05
2023-01-15T02:10:28.109Z,100643.64
2023-01-15T02:13:32.302Z,100644.59
2023-01-15T02:16:32.118Z,100644.19
2023-01-15T02:20:06.235Z,100646.98
2023-01-15T02:23:46.127Z,100646.99
2023-01-15T02:27:04.086Z,100639.53
2023-01-15T02:30:48.084Z,100643.61
2023-01-15T02:34:11.082Z,100635.45
2023-01-15T02:37:24.109Z,100631.20
2023-01-15T02:40:25.108Z,100630.96
2023-01-15T02:43:26.751Z,100632.47
2023-01-15T02:46:28.410Z,100629.03
2023-01-15T02:49:30.125Z,100626.36
2023-01-15T02:52:38.246Z,100628.56
2023-01-15T02:55:41.123Z,100629.27
2023-01-15T02:58:47.138Z,100626.05
2023-01-15T03:01:55.239Z,100616.34
2023-01-15T03:04:58.167Z,100615.71
2023-01-15T03:08:04.176Z,100610.20
2023-01-15T03:11:25.788Z,100610.20
2023-01-15T03:14:37.424Z,100614.98
2023-01-15T03:18:02.435Z,100617.84
2023-01-15T03:21:05.223Z,100619.88
2023-01-15T03:24:07.210Z,100618.35
2023-01-15T03:27:08.227Z,100621.78
2023-01-15T03:30:20.256Z,100624.45
2023-01-15T03:33:23.453Z,100622.69
2023-01-15T03:36:24.171Z,100619.34
2023-01-15T03:39:27.279Z,100615.27
2023-01-15T03:43:28.251Z,100608.00
2023-01-15T03:47:05.293Z,100610.66
2023-01-15T03:50:37.303Z,100611.19
2023-01-15T03:53:53.275Z,100616.95
2023-01-15T03:57:10.236Z,100614.57
2023-01-15T04:00:12.209Z,100618.67
2023-01-15T04:03:18.096Z,100607.36
2023-01-15T04:06:21.293Z,100611.60
2023-01-15T04:09:21.413Z,100612.46
2023-01-15T04:12:25.282Z,100610.90
2023-01-15T04:15:26.297Z,100601.99
2023-01-15T04:18:30.376Z,100594.34
2023-01-15T04:21:31.567Z,100601.94
2023-01-15T04:24:32.282Z,100605.54
2023-01-15T04:27:27.439Z,100604.80
2023-01-15T04:30:30.294Z,100605.21
2023-01-15T04:33:32.318Z,100606.38
2023-01-15T04:36:34.449Z,100605.15
2023-01-15T04:39:34.400Z,100605.38
2023-01-15T04:42:54.356Z,100603.80
2023-01-15T04:45:58.388Z,100600.17
2023-01-15T04:48:59.399Z,100598.51
2023-01-15T04:52:04.328Z,100596.46
2023-01-15T04:55:08.297Z,100592.17
2023-01-15T04:58:09.373Z,100593.98
2023-01-15T05:01:12.449Z,100592.05
2023-01-15T05:04:12.413Z,100594.85
2023-01-15T05:07:17.379Z,100598.79
2023-01-15T05:10:18.346Z,100598.54
2023-01-15T05:13:19.435Z,100588.88
2023-01-15T05:16:24.357Z,100586.23
2023-01-15T05:19:30.395Z,100585.81
2023-01-15T05:22:34.310Z,100588.52
2023-01-15T05:25:52.824Z,100589.48
2023-01-15T05:28:52.396Z,100592.06
2023-01-15T05:31:54.649Z,100588.59
2023-01-15T05:34:56.914Z,100586.89
2023-01-15T05:37:57.578Z,100587.06
2023-01-15T05:40:58.429Z,100588.31
2023-01-15T05:43:58.393Z,100590.71
2023-01-15T05:46:58.421Z,100594.33
2023-01-15T05:49:59.525Z,100588.20
2023-01-15T05:53:02.022Z,100591.33
2023-01-15T05:56:02.506Z,100585.54
2023-01-15T05:59:02.476Z,100585.81
2023-01-15T06:02:02.532Z,100582.01
2023-01-15T06:05:04.550Z,100589.42
2023-01-15T06:08:05.486Z,100599.58
2023-01-15T06:11:05.434Z,100604.02
2023-01-15T06:14:05.544Z,100600.80
2023-01-15T06:17:07.617Z,100597.27
2023-01-15T06:20:07.495Z,100593.59
2023-01-15T06:23:10.533Z,100594.10
2023-01-15T06:26:14.544Z,100586.17
2023-01-15T06:29:15.482Z,100582.98
2023-01-15T06:32:16.523Z,100585.35
2023-01-15T06:35:18.505Z,100582.14
2023-01-15T06:38:19.722Z,100583.62
2023-01-15T06:41:59.607Z,100584.39
2023-01-15T06:45:21.304Z,100589.79
2023-01-15T06:48:22.565Z,100587.94
2023-01-15T06:51:38.062Z,100586.73
2023-01-15T06:54:42.426Z,100583.46
2023-01-15T06:57:42.550Z,100575.12
2023-01-15T07:00:43.629Z,100578.98
2023-01-15T07:03:43.586Z,100579.19
2023-01-15T07:06:45.027Z,100579.50
2023-01-15T07:09:48.667Z,100583.04
2023-01-15T07:12:50.714Z,100582.78
2023-01-15T07:15:53.590Z,100580.23
2023-01-15T07:18:53.567Z,100586.66
2023-01-15T07:21:53.575Z,100584.85
2023-01-15T07:24:53.625Z,100588.65
2023-01-15T07:27:54.572Z,100586.73
2023-01-15T07:30:57.624Z,100584.59
2023-01-15T07:33:57.735Z,100585.06
2023-01-15T07:36:57.633Z,100588.98
2023-01-15T07:39:57.636Z,100591.61
2023-01-15T07:43:15.610Z,100585.66
2023-01-15T07:46:34.640Z,100586.39
2023-01-15T07:49:52.634Z,100595.58
2023-01-15T07:52:53.369Z,100587.49
2023-01-15T07:55:53.609Z,100585.34
2023-01-15T07:58:56.648Z,100590.73
2023-01-15T08:01:56.752Z,100584.17
2023-01-15T08:04:59.681Z,100589.21
2023-01-15T08:07:59.661Z,100584.60
2023-01-15T08:11:18.722Z,100581.14
2023-01-15T08:14:41.958Z,100586.73
2023-01-15T08:17:46.797Z,100592.46
2023-01-15T08:20:47.674Z,100588.36
2023-01-15T08:23:52.335Z,100590.40
2023-01-15T08:26:52.703Z,100587.88
2023-01-15T08:29:54.716Z,100593.38
2023-01-15T08:32:56.382Z,100589.31
2023-01-15T08:35:57.695Z,100584.21
2023-01-15T08:38:58.819Z,100583.51
2023-01-15T08:42:02.875Z,100574.90
2023-01-15T08:45:02.750Z,100569.44
2023-01-15T08:48:04.808Z,100567.73
2023-01-15T08:51:05.733Z,100563.58
2023-01-15T08:54:09.704Z,100565.86
2023-01-15T08:57:12.838Z,100562.21
2023-01-15T09:00:12.731Z,100563.90
2023-01-15T09:03:13.420Z,100556.02
2023-01-15T09:06:17.864Z,100543.92
2023-01-15T09:09:20.595Z,100540.42
2023-01-15T09:12:21.735Z,100545.70
2023-01-15T09:15:21.781Z,100535.08
2023-01-15T09:18:24.769Z,100531.95
2023-01-15T09:21:24.770Z,100530.27
2023-01-15T09:24:27.803Z,100524.01
2023-01-15T09:27:30.038Z,100518.28
2023-01-15T09:30:32.862Z,100519.77
2023-01-15T09:33:33.841Z,100515.06
2023-01-15T09:36:46.110Z,100506.39
2023-01-15T09:40:00.415Z,100510.58
2023-01-15T09:43:05.822Z,100510.23
2023-01-15T09:46:15.904Z,100506.14
2023-01-15T09:49:45.897Z,100505.18
2023-01-15T09:52:58.383Z,100501.00
2023-01-15T09:56:00.835Z,100486.65
2023-01-15T13:42:29.353Z,100290.96
2023-01-15T13:45:41.256Z,100287.41
2023-01-15T13:48:48.244Z,100286.79
2023-01-15T13:51:50.281Z,100294.55
2023-01-15T13:54:54.283Z,100300.59
2023-01-15T13:58:00.657Z,100301.04
2023-01-15T14:01:01.511Z,100304.19
2023-01-15T14:04:18.286Z,100311.84
2023-01-15T14:07:30.321Z,100312.55
2023-01-15T14:10:31.385Z,100312.16
2023-01-15T14:13:54.425Z,100318.19
2023-01-15T14:17:07.303Z,100307.33
2023-01-15T14:20:10.328Z,100302.55
2023-01-15T14:23:52.486Z,100295.94
2023-01-15T14:27:26.356Z,100294.82
2023-01-15T14:30:42.316Z,100280.27
2023-01-15T14:33:52.594Z,100277.54
2023-01-15T14:37:11.321Z,100280.85
2023-01-15T14:40:15.397Z,100271.36
2023-01-15T14:43:20.347Z,100267.70
2023-01-15T14:46:26.393Z,100262.41
2023-01-15T14:49:42.409Z,100257.39
2023-01-15T14:52:44.615Z,100258.22
2023-01-15T14:55:46.387Z,100259.31
2023-01-15T14:59:01.912Z,100250.98
2023-01-15T15:02:05.548Z,100255.17
2023-01-15T15:05:08.607Z,100252.89
2023-01-15T15:08:08.459Z,100249.66
2023-01-15T15:11:10.401Z,100252.02
2023-01-15T15:14:13.749Z,100244.98
2023-01-15T15:17:14.398Z,100242.27
2023-01-15T15:21:05.655Z,100247.94
2023-01-15T15:24:22.453Z,100241.91
2023-01-15T15:27:32.535Z,100237.37
2023-01-15T15:30:32.483Z,100244.86
2023-01-15T15:33:37.465Z,100235.08
2023-01-15T15:36:39.811Z,100232.07
2023-01-15T15:39:49.547Z,100232.17
2023-01-15T15:43:29.471Z,100231.98
2023-01-15T15:46:59.482Z,100231.86
2023-01-15T15:50:02.596Z,100241.80
2023-01-15T15:53:04.565Z,100247.50
2023-01-15T15:56:07.776Z,100244.21
2023-01-15T15:59:11.509Z,100249.12
2023-01-15T16:02:16.102Z,100252.94
2023-01-15T16:05:37.472Z,100272.45
2023-01-15T16:08:37.496Z,100255.53
2023-01-15T16:11:37.529Z,100254.55
2023-01-15T16:14:38.521Z,100260.83
2023-01-15T16:17:38.538Z,100252.93
2023-01-15T16:20:38.492Z,100248.36
2023-01-15T16:23:44.329Z,100241.83
2023-01-15T16:26:59.512Z,100233.40
2023-01-15T16:30:04.594Z,100237.58
2023-01-15T16:33:05.042Z,100228.79
2023-01-15T16:36:15.634Z,100229.65
2023-01-15T16:39:17.793Z,100221.38
2023-01-15T16:42:19.547Z,100220.08
2023-01-15T16:45:43.333Z,100212.35
2023-01-15T16:48:44.592Z,100216.33
2023-01-15T16:51:48.595Z,100211.42
2023-01-15T16:54:48.539Z,100209.02
2023-01-15T16:57:50.816Z,100206.57
2023-01-15T17:00:54.723Z,100216.48
2023-01-15T17:03:54.569Z,100208.66
2023-01-15T17:06:57.560Z,100209.95
2023-01-15T17:10:09.585Z,100220.73
2023-01-15T17:13:09.842Z,100225.59
2023-01-15T17:16:15.965Z,100208.41
2023-01-15T17:19:22.432Z,100208.58
2023-01-15T17:22:48.756Z,100211.61
2023-01-15T17:25:51.624Z,100202.77
2023-01-15T17:28:51.802Z,100216.49
2023-01-15T17:31:54.599Z,100203.04
2023-01-15T17:34:58.860Z,100199.61
2023-01-15T17:37:59.628Z,100193.27
2023-01-15T17:41:03.682Z,100196.54
2023-01-15T17:44:03.783Z,100200.69
2023-01-15T17:47:03.716Z,100186.13
2023-01-15T17:50:07.838Z,100184.00
2023-01-15T17:53:09.692Z,100184.64
2023-01-15T17:56:27.736Z,100178.13
2023-01-15T17:59:47.704Z,100171.08
2023-01-15T18:03:07.111Z,100163.16
2023-01-15T18:06:08.203Z,100155.33
2023-01-15T18:09:20.971Z,100141.96
2023-01-15T18:12:24.247Z,100148.42
2023-01-15T18:15:30.765Z,100134.31
2023-01-15T18:18:32.764Z,100139.17
2023-01-15T18:21:35.777Z,100133.05
2023-01-15T18:24:36.737Z,100136.96
2023-01-15T18:27:39.730Z,100124.10
2023-01-15T18:30:41.720Z,100117.30
2023-01-15T18:33:42.709Z,100120.10
2023-01-15T18:36:49.021Z,100125.99
2023-01-15T18:39:49.756Z,100124.88
2023-01-15T18:43:13.770Z,100125.94
2023-01-15T18:46:41.999Z,100112.66
2023-01-15T18:49:41.806Z,100109.74
2023-01-15T18:52:59.189Z,100101.23
2023-01-15T18:56:01.808Z,100106.34
2023-01-15T18:59:04.520Z,100118.23
2023-01-15T19:02:08.029Z,100106.19
2023-01-15T19:05:07.839Z,100106.20
2023-01-15T19:08:10.294Z,100118.64
2023-01-15T19:11:14.259Z,100110.90
2023-01-15T19:14:33.789Z,100101.61
2023-01-15T19:17:54.102Z,100101.35
2023-01-15T19:20:54.029Z,100105.92
2023-01-15T19:24:02.089Z,100105.23
2023-01-15T19:27:11.707Z,100104.15
2023-01-15T19:30:13.845Z,100114.02
2023-01-15T19:33:17.795Z,100103.61
2023-01-15T19:36:19.114Z,100103.16
2023-01-15T19:39:20.118Z,100110.92
2023-01-15T19:42:40.085Z,100100.41
2023-01-15T19:45:58.197Z,100094.14
2023-01-15T19:49:18.021Z,100092.56
2023-01-15T19:52:38.119Z,100097.84
2023-01-15T19:55:43.880Z,100101.16
2023-01-15T19:58:46.136Z,100106.17
2023-01-15T20:01:46.990Z,100108.21
2023-01-15T20:04:46.889Z,100106.94
2023-01-15T20:07:47.861Z,100093.15
2023-01-15T20:10:54.917Z,100095.14
2023-01-15T20:13:56.233Z,100090.16
2023-01-15T20:16:57.034Z,100100.17
2023-01-15T20:19:57.958Z,100076.52
2023-01-15T20:22:59.060Z,100068.44
2023-01-15T20:25:59.961Z,100067.32
2023-01-15T20:28:59.880Z,100053.94
2023-01-15T20:31:59.967Z,100051.91
2023-01-15T20:35:00.338Z,100064.89
2023-01-15T20:38:04.426Z,100069.27
2023-01-15T20:41:28.253Z,100062.84
2023-01-15T20:44:46.376Z,100067.10
2023-01-15T20:48:08.328Z,100082.27
2023-01-15T20:51:08.024Z,100082.69
2023-01-15T20:54:08.975Z,100081.92
2023-01-15T20:57:11.969Z,100092.90
2023-01-15T21:00:12.011Z,100089.68
2023-01-15T21:03:12.986Z,100089.68
2023-01-15T21:06:12.978Z,100087.79
2023-01-15T21:09:13.996Z,100090.35
2023-01-15T21:12:15.135Z,100097.55
2023-01-15T21:15:08.081Z,100087.92
2023-01-15T21:18:09.529Z,100081.89
2023-01-15T21:21:11.025Z,100076.23
2023-01-15T21:24:13.042Z,100091.08
2023-01-15T21:27:16.103Z,100085.73
2023-01-15T21:30:17.030Z,100083.38
2023-01-15T21:33:17.340Z,100079.92
2023-01-15T21:36:21.000Z,100077.86
2023-01-15T21:39:22.049Z,100075.40
2023-01-15T21:42:51.126Z,100105.21
2023-01-15T21:45:53.134Z,100100.46
2023-01-15T21:48:53.078Z,100078.16
2023-01-15T21:51:54.064Z,100067.36
2023-01-15T21:54:54.036Z,100071.35
2023-01-15T21:57:55.116Z,100061.66
2023-01-15T22:00:56.086Z,100056.95
2023-01-15T22:03:57.058Z,100062.12
2023-01-15T22:07:00.059Z,100071.66
2023-01-15T22:10:00.129Z,100074.98
2023-01-15T22:13:03.110Z,100067.38
2023-01-15T22:16:07.154Z,100059.59
2023-01-15T22:19:08.246Z,100056.63
2023-01-15T22:22:16.458Z,100060.98
2023-01-15T22:25:19.140Z,100069.59
2023-01-15T22:28:20.394Z,100051.42
2023-01-15T22:31:24.091Z,100050.77
2023-01-15T22:34:24.116Z,100048.02
2023-01-15T22:37:26.189Z,100039.94
2023-01-15T22:40:29.168Z,100031.15
2023-01-15T22:43:29.176Z,100025.64
2023-01-15T22:46:29.151Z,100024.65
2023-01-15T22:49:30.225Z,100018.65
2023-01-15T22:52:31.207Z,100018.75
2023-01-15T22:55:35.325Z,100033.77
2023-01-15T22:58:36.151Z,100023.94
2023-01-15T23:01:45.653Z,100020.78
2023-01-15T23:04:47.285Z,100009.43
2023-01-15T23:07:49.207Z,100023.63
2023-01-15T23:10:52.651Z,100029.34
2023-01-15T23:13:55.180Z,100031.70
2023-01-15T23:16:58.212Z,100028.63
2023-01-15T23:19:58.205Z,100015.00
2023-01-15T23:22:59.543Z,100011.98
2023-01-15T23:26:00.206Z,100017.60
2023-01-15T23:29:00.224Z,100012.63
2023-01-15T23:32:00.217Z,99992.90
2023-01-15T23:35:00.258Z,99993.50
2023-01-15T23:38:02.326Z,99987.48
2023-01-15T23:41:02.224Z,99998.70
2023-01-15T23:44:22.315Z,99997.50
2023-01-15T23:47:23.334Z,100009.67
2023-01-15T23:50:24.216Z,100012.20
2023-01-15T23:53:25.261Z,100001.22
2023-01-15T23:56:26.225Z,99987.61
2023-01-15T23:59:28.233Z,99985.28
